sensor_id;sensor_type;location;lat;lon;timestamp;P1;durP1;ratioP1;P2;durP2;ratioP2
5965;SDS011;3009;43.224;27.976;2022-12-18T00:00:06;4.17;;;3.77;;
5965;SDS011;3009;43.224;27.976;2022-12-18T00:02:35;3.87;;;3.57;;
5965;SDS011;3009;43.224;27.976;2022-12-18T00:05:04;4.50;;;3.30;;
5965;SDS011;3009;43.224;27.976;2022-12-18T00:07:33;3.63;;;3.33;;
5965;SDS011;3009;43.224;27.976;2022-12-18T00:10:01;3.93;;;3.63;;
5965;SDS011;3009;43.224;27.976;2022-12-18T00:12:31;3.60;;;3.40;;
5965;SDS011;3009;43.224;27.976;2022-12-18T00:14:59;3.90;;;3.60;;
5965;SDS011;3009;43.224;27.976;2022-12-18T00:17:27;4.33;;;3.23;;
5965;SDS011;3009;43.224;27.976;2022-12-18T00:19:55;4.17;;;3.77;;
5965;SDS011;3009;43.224;27.976;2022-12-18T00:22:23;3.80;;;3.40;;
5965;SDS011;3009;43.224;27.976;2022-12-18T00:24:51;4.53;;;4.13;;
5965;SDS011;3009;43.224;27.976;2022-12-18T00:27:19;6.40;;;4.37;;
5965;SDS011;3009;43.224;27.976;2022-12-18T00:29:49;3.90;;;3.60;;
5965;SDS011;3009;43.224;27.976;2022-12-18T00:32:17;4.10;;;3.70;;
5965;SDS011;3009;43.224;27.976;2022-12-18T00:34:45;4.37;;;3.97;;
5965;SDS011;3009;43.224;27.976;2022-12-18T00:37:13;4.30;;;3.90;;
5965;SDS011;3009;43.224;27.976;2022-12-18T00:39:47;3.77;;;3.47;;
5965;SDS011;3009;43.224;27.976;2022-12-18T00:42:16;4.30;;;4.00;;
5965;SDS011;3009;43.224;27.976;2022-12-18T00:45:03;4.00;;;3.70;;
5965;SDS011;3009;43.224;27.976;2022-12-18T00:47:38;3.57;;;3.27;;
5965;SDS011;3009;43.224;27.976;2022-12-18T00:50:07;4.10;;;3.80;;
5965;SDS011;3009;43.224;27.976;2022-12-18T00:52:36;3.77;;;3.47;;
5965;SDS011;3009;43.224;27.976;2022-12-18T00:55:04;4.60;;;4.10;;
5965;SDS011;3009;43.224;27.976;2022-12-18T00:57:33;4.37;;;3.97;;
5965;SDS011;3009;43.224;27.976;2022-12-18T01:00:03;4.50;;;4.10;;
5965;SDS011;3009;43.224;27.976;2022-12-18T01:02:32;3.73;;;3.43;;
5965;SDS011;3009;43.224;27.976;2022-12-18T01:05:00;3.90;;;3.60;;
5965;SDS011;3009;43.224;27.976;2022-12-18T01:07:28;4.10;;;3.80;;
5965;SDS011;3009;43.224;27.976;2022-12-18T01:09:57;4.03;;;3.73;;
5965;SDS011;3009;43.224;27.976;2022-12-18T01:12:25;3.53;;;3.23;;
5965;SDS011;3009;43.224;27.976;2022-12-18T01:14:53;4.37;;;3.97;;
5965;SDS011;3009;43.224;27.976;2022-12-18T01:17:22;4.63;;;4.10;;
5965;SDS011;3009;43.224;27.976;2022-12-18T01:19:51;5.90;;;3.20;;
5965;SDS011;3009;43.224;27.976;2022-12-18T01:22:19;11.40;;;4.17;;
5965;SDS011;3009;43.224;27.976;2022-12-18T01:24:47;4.03;;;3.73;;
5965;SDS011;3009;43.224;27.976;2022-12-18T01:27:15;6.90;;;3.87;;
5965;SDS011;3009;43.224;27.976;2022-12-18T01:29:44;4.07;;;3.67;;
5965;SDS011;3009;43.224;27.976;2022-12-18T01:32:12;4.43;;;3.83;;
5965;SDS011;3009;43.224;27.976;2022-12-18T01:34:41;4.50;;;3.80;;
5965;SDS011;3009;43.224;27.976;2022-12-18T01:37:09;3.63;;;3.43;;
5965;SDS011;3009;43.224;27.976;2022-12-18T01:39:38;3.97;;;3.43;;
5965;SDS011;3009;43.224;27.976;2022-12-18T01:42:09;4.40;;;4.00;;
5965;SDS011;3009;43.224;27.976;2022-12-18T01:44:56;6.33;;;4.50;;
5965;SDS011;3009;43.224;27.976;2022-12-18T01:47:28;10.50;;;5.60;;
5965;SDS011;3009;43.224;27.976;2022-12-18T01:50:03;6.87;;;4.87;;
5965;SDS011;3009;43.224;27.976;2022-12-18T01:52:35;18.67;;;6.10;;
5965;SDS011;3009;43.224;27.976;2022-12-18T01:55:05;8.10;;;5.53;;
5965;SDS011;3009;43.224;27.976;2022-12-18T01:57:35;7.90;;;5.23;;
5965;SDS011;3009;43.224;27.976;2022-12-18T02:00:05;11.33;;;5.37;;
5965;SDS011;3009;43.224;27.976;2022-12-18T02:02:36;5.03;;;4.17;;
5965;SDS011;3009;43.224;27.976;2022-12-18T02:05:06;4.63;;;3.93;;
5965;SDS011;3009;43.224;27.976;2022-12-18T02:07:37;5.50;;;4.00;;
5965;SDS011;3009;43.224;27.976;2022-12-18T02:10:14;4.53;;;4.00;;
5965;SDS011;3009;43.224;27.976;2022-12-18T02:12:48;4.40;;;4.00;;
5965;SDS011;3009;43.224;27.976;2022-12-18T02:15:24;4.83;;;4.40;;
5965;SDS011;3009;43.224;27.976;2022-12-18T02:18:00;4.90;;;4.40;;
5965;SDS011;3009;43.224;27.976;2022-12-18T02:20:36;4.27;;;3.97;;
5965;SDS011;3009;43.224;27.976;2022-12-18T02:23:12;5.13;;;3.70;;
5965;SDS011;3009;43.224;27.976;2022-12-18T02:25:55;4.47;;;4.03;;
5965;SDS011;3009;43.224;27.976;2022-12-18T02:28:36;6.87;;;4.07;;
5965;SDS011;3009;43.224;27.976;2022-12-18T02:31:08;5.10;;;3.60;;
5965;SDS011;3009;43.224;27.976;2022-12-18T02:33:42;5.37;;;3.87;;
5965;SDS011;3009;43.224;27.976;2022-12-18T02:36:12;5.17;;;3.70;;
5965;SDS011;3009;43.224;27.976;2022-12-18T02:38:42;4.60;;;4.20;;
5965;SDS011;3009;43.224;27.976;2022-12-18T02:41:14;5.73;;;4.23;;
5965;SDS011;3009;43.224;27.976;2022-12-18T02:43:47;3.90;;;3.60;;
5965;SDS011;3009;43.224;27.976;2022-12-18T02:46:31;3.80;;;3.50;;
5965;SDS011;3009;43.224;27.976;2022-12-18T02:49:04;4.07;;;3.63;;
5965;SDS011;3009;43.224;27.976;2022-12-18T02:51:42;3.80;;;3.50;;
5965;SDS011;3009;43.224;27.976;2022-12-18T02:54:21;5.60;;;3.67;;
5965;SDS011;3009;43.224;27.976;2022-12-18T02:56:58;3.63;;;3.30;;
5965;SDS011;3009;43.224;27.976;2022-12-18T02:59:38;4.07;;;3.77;;
5965;SDS011;3009;43.224;27.976;2022-12-18T03:02:16;3.53;;;3.23;;
5965;SDS011;3009;43.224;27.976;2022-12-18T03:04:49;4.47;;;3.87;;
5965;SDS011;3009;43.224;27.976;2022-12-18T03:07:32;3.33;;;2.87;;
5965;SDS011;3009;43.224;27.976;2022-12-18T03:10:06;3.50;;;3.30;;
5965;SDS011;3009;43.224;27.976;2022-12-18T03:12:41;4.07;;;3.67;;
5965;SDS011;3009;43.224;27.976;2022-12-18T03:15:14;4.63;;;3.93;;
5965;SDS011;3009;43.224;27.976;2022-12-18T03:17:49;4.57;;;4.10;;
5965;SDS011;3009;43.224;27.976;2022-12-18T03:20:21;3.00;;;2.80;;
5965;SDS011;3009;43.224;27.976;2022-12-18T03:22:52;3.20;;;3.00;;
5965;SDS011;3009;43.224;27.976;2022-12-18T03:25:23;3.67;;;3.37;;
5965;SDS011;3009;43.224;27.976;2022-12-18T03:27:55;3.07;;;2.87;;
5965;SDS011;3009;43.224;27.976;2022-12-18T03:30:26;4.77;;;3.83;;
5965;SDS011;3009;43.224;27.976;2022-12-18T03:32:58;3.10;;;2.90;;
5965;SDS011;3009;43.224;27.976;2022-12-18T03:35:33;3.30;;;3.10;;
5965;SDS011;3009;43.224;27.976;2022-12-18T03:38:06;3.50;;;3.20;;
5965;SDS011;3009;43.224;27.976;2022-12-18T03:40:35;3.23;;;3.03;;
5965;SDS011;3009;43.224;27.976;2022-12-18T03:43:16;3.00;;;2.80;;
5965;SDS011;3009;43.224;27.976;2022-12-18T03:45:50;2.97;;;2.77;;
5965;SDS011;3009;43.224;27.976;2022-12-18T03:48:25;3.23;;;3.00;;
5965;SDS011;3009;43.224;27.976;2022-12-18T03:50:59;3.60;;;3.30;;
5965;SDS011;3009;43.224;27.976;2022-12-18T03:53:33;2.90;;;2.70;;
5965;SDS011;3009;43.224;27.976;2022-12-18T03:56:08;3.53;;;3.30;;
5965;SDS011;3009;43.224;27.976;2022-12-18T03:58:39;3.30;;;3.10;;
5965;SDS011;3009;43.224;27.976;2022-12-18T04:01:10;3.80;;;3.40;;
5965;SDS011;3009;43.224;27.976;2022-12-18T04:03:42;3.67;;;3.37;;
5965;SDS011;3009;43.224;27.976;2022-12-18T04:06:14;3.30;;;3.10;;
5965;SDS011;3009;43.224;27.976;2022-12-18T04:08:44;4.07;;;3.73;;
5965;SDS011;3009;43.224;27.976;2022-12-18T04:11:13;4.20;;;3.80;;
5965;SDS011;3009;43.224;27.976;2022-12-18T04:13:43;3.53;;;3.33;;
5965;SDS011;3009;43.224;27.976;2022-12-18T04:16:11;3.43;;;3.23;;
5965;SDS011;3009;43.224;27.976;2022-12-18T04:18:40;3.60;;;3.30;;
5965;SDS011;3009;43.224;27.976;2022-12-18T04:21:09;4.00;;;3.60;;
5965;SDS011;3009;43.224;27.976;2022-12-18T04:23:38;4.73;;;3.97;;
5965;SDS011;3009;43.224;27.976;2022-12-18T04:26:06;4.67;;;3.80;;
5965;SDS011;3009;43.224;27.976;2022-12-18T04:28:34;4.60;;;4.20;;
5965;SDS011;3009;43.224;27.976;2022-12-18T04:31:04;4.30;;;3.90;;
5965;SDS011;3009;43.224;27.976;2022-12-18T04:33:34;4.80;;;4.30;;
5965;SDS011;3009;43.224;27.976;2022-12-18T04:36:03;4.90;;;4.50;;
5965;SDS011;3009;43.224;27.976;2022-12-18T04:38:32;8.37;;;5.10;;
5965;SDS011;3009;43.224;27.976;2022-12-18T04:41:01;4.13;;;3.83;;
5965;SDS011;3009;43.224;27.976;2022-12-18T04:43:29;5.73;;;4.10;;
5965;SDS011;3009;43.224;27.976;2022-12-18T04:46:04;4.93;;;4.53;;
5965;SDS011;3009;43.224;27.976;2022-12-18T04:48:33;5.47;;;4.97;;
5965;SDS011;3009;43.224;27.976;2022-12-18T04:51:02;6.67;;;5.33;;
5965;SDS011;3009;43.224;27.976;2022-12-18T04:53:31;6.30;;;5.10;;
5965;SDS011;3009;43.224;27.976;2022-12-18T04:56:03;7.50;;;5.43;;
5965;SDS011;3009;43.224;27.976;2022-12-18T04:58:32;5.20;;;4.70;;
5965;SDS011;3009;43.224;27.976;2022-12-18T05:01:00;7.50;;;5.80;;
5965;SDS011;3009;43.224;27.976;2022-12-18T05:03:31;7.40;;;5.97;;
5965;SDS011;3009;43.224;27.976;2022-12-18T05:05:59;8.73;;;6.03;;
5965;SDS011;3009;43.224;27.976;2022-12-18T05:08:28;8.30;;;6.60;;
5965;SDS011;3009;43.224;27.976;2022-12-18T05:10:59;7.23;;;6.07;;
5965;SDS011;3009;43.224;27.976;2022-12-18T05:13:28;7.10;;;5.90;;
5965;SDS011;3009;43.224;27.976;2022-12-18T05:15:57;6.53;;;5.37;;
5965;SDS011;3009;43.224;27.976;2022-12-18T05:18:26;8.30;;;6.07;;
5965;SDS011;3009;43.224;27.976;2022-12-18T05:20:56;7.10;;;6.20;;
5965;SDS011;3009;43.224;27.976;2022-12-18T05:23:24;10.47;;;7.07;;
5965;SDS011;3009;43.224;27.976;2022-12-18T05:25:53;9.03;;;6.73;;
5965;SDS011;3009;43.224;27.976;2022-12-18T05:28:23;8.53;;;5.97;;
5965;SDS011;3009;43.224;27.976;2022-12-18T05:30:53;10.33;;;7.90;;
5965;SDS011;3009;43.224;27.976;2022-12-18T05:33:24;11.00;;;8.00;;
5965;SDS011;3009;43.224;27.976;2022-12-18T05:35:54;11.23;;;7.67;;
5965;SDS011;3009;43.224;27.976;2022-12-18T05:38:26;10.93;;;7.73;;
5965;SDS011;3009;43.224;27.976;2022-12-18T05:40:55;16.77;;;8.77;;
5965;SDS011;3009;43.224;27.976;2022-12-18T05:43:24;11.07;;;8.03;;
5965;SDS011;3009;43.224;27.976;2022-12-18T05:45:53;12.80;;;9.40;;
5965;SDS011;3009;43.224;27.976;2022-12-18T05:48:23;14.40;;;9.07;;
5965;SDS011;3009;43.224;27.976;2022-12-18T05:50:51;14.90;;;9.43;;
5965;SDS011;3009;43.224;27.976;2022-12-18T05:53:21;13.87;;;9.60;;
5965;SDS011;3009;43.224;27.976;2022-12-18T05:55:49;15.17;;;8.93;;
5965;SDS011;3009;43.224;27.976;2022-12-18T05:58:17;15.03;;;9.73;;
5965;SDS011;3009;43.224;27.976;2022-12-18T06:00:46;16.70;;;9.83;;
5965;SDS011;3009;43.224;27.976;2022-12-18T06:03:14;19.90;;;12.07;;
5965;SDS011;3009;43.224;27.976;2022-12-18T06:05:43;14.60;;;9.63;;
5965;SDS011;3009;43.224;27.976;2022-12-18T06:08:12;16.73;;;10.57;;
5965;SDS011;3009;43.224;27.976;2022-12-18T06:10:49;15.43;;;10.33;;
5965;SDS011;3009;43.224;27.976;2022-12-18T06:13:18;16.83;;;10.47;;
5965;SDS011;3009;43.224;27.976;2022-12-18T06:15:47;16.50;;;10.40;;
5965;SDS011;3009;43.224;27.976;2022-12-18T06:18:15;16.97;;;11.00;;
5965;SDS011;3009;43.224;27.976;2022-12-18T06:20:44;18.30;;;11.80;;
5965;SDS011;3009;43.224;27.976;2022-12-18T06:23:12;14.53;;;10.63;;
5965;SDS011;3009;43.224;27.976;2022-12-18T06:25:40;18.13;;;11.50;;
5965;SDS011;3009;43.224;27.976;2022-12-18T06:28:10;19.17;;;11.43;;
5965;SDS011;3009;43.224;27.976;2022-12-18T06:30:38;17.73;;;10.53;;
5965;SDS011;3009;43.224;27.976;2022-12-18T06:33:06;19.77;;;11.07;;
5965;SDS011;3009;43.224;27.976;2022-12-18T06:35:34;19.30;;;11.27;;
5965;SDS011;3009;43.224;27.976;2022-12-18T06:38:03;22.97;;;11.97;;
5965;SDS011;3009;43.224;27.976;2022-12-18T06:40:31;18.20;;;10.87;;
5965;SDS011;3009;43.224;27.976;2022-12-18T06:42:59;18.33;;;11.40;;
5965;SDS011;3009;43.224;27.976;2022-12-18T06:45:29;23.70;;;12.40;;
5965;SDS011;3009;43.224;27.976;2022-12-18T06:47:57;21.50;;;12.80;;
5965;SDS011;3009;43.224;27.976;2022-12-18T06:50:26;19.37;;;12.57;;
5965;SDS011;3009;43.224;27.976;2022-12-18T06:52:54;22.73;;;12.50;;
5965;SDS011;3009;43.224;27.976;2022-12-18T06:55:22;21.10;;;13.03;;
5965;SDS011;3009;43.224;27.976;2022-12-18T06:57:50;18.60;;;12.27;;
5965;SDS011;3009;43.224;27.976;2022-12-18T07:00:19;20.50;;;13.13;;
5965;SDS011;3009;43.224;27.976;2022-12-18T07:02:48;20.73;;;12.90;;
5965;SDS011;3009;43.224;27.976;2022-12-18T07:05:17;22.67;;;13.97;;
5965;SDS011;3009;43.224;27.976;2022-12-18T07:07:45;23.60;;;13.07;;
5965;SDS011;3009;43.224;27.976;2022-12-18T07:10:13;21.37;;;13.90;;
5965;SDS011;3009;43.224;27.976;2022-12-18T07:12:41;20.50;;;13.00;;
5965;SDS011;3009;43.224;27.976;2022-12-18T07:15:09;20.43;;;13.10;;
5965;SDS011;3009;43.224;27.976;2022-12-18T07:17:38;24.80;;;14.30;;
5965;SDS011;3009;43.224;27.976;2022-12-18T07:20:08;26.97;;;14.60;;
5965;SDS011;3009;43.224;27.976;2022-12-18T07:22:37;23.13;;;12.83;;
5965;SDS011;3009;43.224;27.976;2022-12-18T07:25:06;24.30;;;13.67;;
5965;SDS011;3009;43.224;27.976;2022-12-18T07:27:35;24.57;;;14.93;;
5965;SDS011;3009;43.224;27.976;2022-12-18T07:30:03;24.37;;;12.80;;
5965;SDS011;3009;43.224;27.976;2022-12-18T07:32:34;21.40;;;13.50;;
5965;SDS011;3009;43.224;27.976;2022-12-18T07:35:02;26.63;;;14.30;;
5965;SDS011;3009;43.224;27.976;2022-12-18T07:37:32;20.50;;;11.60;;
5965;SDS011;3009;43.224;27.976;2022-12-18T07:40:01;23.73;;;13.93;;
5965;SDS011;3009;43.224;27.976;2022-12-18T07:42:29;23.83;;;14.50;;
5965;SDS011;3009;43.224;27.976;2022-12-18T07:44:58;23.87;;;13.53;;
5965;SDS011;3009;43.224;27.976;2022-12-18T07:47:33;26.20;;;15.70;;
5965;SDS011;3009;43.224;27.976;2022-12-18T07:50:02;26.70;;;13.83;;
5965;SDS011;3009;43.224;27.976;2022-12-18T07:52:32;27.83;;;14.10;;
5965;SDS011;3009;43.224;27.976;2022-12-18T07:55:00;24.67;;;14.37;;
5965;SDS011;3009;43.224;27.976;2022-12-18T07:57:29;23.20;;;13.50;;
5965;SDS011;3009;43.224;27.976;2022-12-18T08:00:18;23.70;;;13.00;;
5965;SDS011;3009;43.224;27.976;2022-12-18T08:02:46;24.50;;;14.27;;
5965;SDS011;3009;43.224;27.976;2022-12-18T08:05:14;27.20;;;13.70;;
5965;SDS011;3009;43.224;27.976;2022-12-18T08:07:44;23.30;;;13.40;;
5965;SDS011;3009;43.224;27.976;2022-12-18T08:10:13;25.40;;;14.30;;
5965;SDS011;3009;43.224;27.976;2022-12-18T08:12:41;28.07;;;15.20;;
5965;SDS011;3009;43.224;27.976;2022-12-18T08:15:09;30.63;;;17.10;;
5965;SDS011;3009;43.224;27.976;2022-12-18T08:17:38;25.07;;;13.23;;
5965;SDS011;3009;43.224;27.976;2022-12-18T08:20:07;20.23;;;12.80;;
5965;SDS011;3009;43.224;27.976;2022-12-18T08:22:36;23.77;;;13.40;;
5965;SDS011;3009;43.224;27.976;2022-12-18T08:25:06;21.10;;;13.20;;
5965;SDS011;3009;43.224;27.976;2022-12-18T08:27:35;24.50;;;14.60;;
5965;SDS011;3009;43.224;27.976;2022-12-18T08:30:03;25.67;;;14.90;;
5965;SDS011;3009;43.224;27.976;2022-12-18T08:32:32;27.57;;;14.10;;
5965;SDS011;3009;43.224;27.976;2022-12-18T08:35:01;22.57;;;14.23;;
5965;SDS011;3009;43.224;27.976;2022-12-18T08:37:29;26.70;;;14.23;;
5965;SDS011;3009;43.224;27.976;2022-12-18T08:39:57;24.87;;;13.70;;
5965;SDS011;3009;43.224;27.976;2022-12-18T08:42:27;26.70;;;14.30;;
5965;SDS011;3009;43.224;27.976;2022-12-18T08:45:13;27.03;;;14.23;;
5965;SDS011;3009;43.224;27.976;2022-12-18T08:47:41;34.10;;;15.13;;
5965;SDS011;3009;43.224;27.976;2022-12-18T08:50:10;42.33;;;20.10;;
5965;SDS011;3009;43.224;27.976;2022-12-18T08:52:38;39.70;;;20.43;;
5965;SDS011;3009;43.224;27.976;2022-12-18T08:55:07;23.33;;;13.70;;
5965;SDS011;3009;43.224;27.976;2022-12-18T08:57:37;32.80;;;18.10;;
5965;SDS011;3009;43.224;27.976;2022-12-18T09:00:06;35.60;;;19.67;;
5965;SDS011;3009;43.224;27.976;2022-12-18T09:02:35;41.97;;;20.87;;
5965;SDS011;3009;43.224;27.976;2022-12-18T09:05:04;39.07;;;18.73;;
5965;SDS011;3009;43.224;27.976;2022-12-18T09:07:33;25.57;;;14.47;;
5965;SDS011;3009;43.224;27.976;2022-12-18T09:10:01;33.87;;;17.57;;
5965;SDS011;3009;43.224;27.976;2022-12-18T09:12:29;27.23;;;15.70;;
5965;SDS011;3009;43.224;27.976;2022-12-18T09:14:59;26.40;;;15.80;;
5965;SDS011;3009;43.224;27.976;2022-12-18T09:17:27;33.67;;;18.97;;
5965;SDS011;3009;43.224;27.976;2022-12-18T09:19:55;34.17;;;17.33;;
5965;SDS011;3009;43.224;27.976;2022-12-18T09:22:24;39.87;;;18.97;;
5965;SDS011;3009;43.224;27.976;2022-12-18T09:24:52;35.57;;;19.00;;
5965;SDS011;3009;43.224;27.976;2022-12-18T09:27:20;34.73;;;17.20;;
5965;SDS011;3009;43.224;27.976;2022-12-18T09:29:49;44.77;;;19.10;;
5965;SDS011;3009;43.224;27.976;2022-12-18T09:32:19;31.07;;;16.73;;
5965;SDS011;3009;43.224;27.976;2022-12-18T09:34:48;41.33;;;20.50;;
5965;SDS011;3009;43.224;27.976;2022-12-18T09:37:16;31.37;;;16.73;;
5965;SDS011;3009;43.224;27.976;2022-12-18T09:39:44;32.83;;;17.10;;
5965;SDS011;3009;43.224;27.976;2022-12-18T09:42:14;38.40;;;16.60;;
5965;SDS011;3009;43.224;27.976;2022-12-18T09:44:49;34.50;;;18.00;;
5965;SDS011;3009;43.224;27.976;2022-12-18T09:47:22;30.13;;;17.33;;
5965;SDS011;3009;43.224;27.976;2022-12-18T09:49:53;33.37;;;17.00;;
5965;SDS011;3009;43.224;27.976;2022-12-18T09:52:26;32.73;;;16.40;;
5965;SDS011;3009;43.224;27.976;2022-12-18T09:54:59;32.13;;;16.30;;
5965;SDS011;3009;43.224;27.976;2022-12-18T09:57:34;44.50;;;19.87;;
5965;SDS011;3009;43.224;27.976;2022-12-18T10:00:11;42.93;;;19.50;;
5965;SDS011;3009;43.224;27.976;2022-12-18T10:02:45;37.70;;;18.90;;
5965;SDS011;3009;43.224;27.976;2022-12-18T10:05:16;37.00;;;18.23;;
5965;SDS011;3009;43.224;27.976;2022-12-18T10:07:50;46.40;;;17.63;;
5965;SDS011;3009;43.224;27.976;2022-12-18T10:10:26;31.27;;;15.63;;
5965;SDS011;3009;43.224;27.976;2022-12-18T10:13:02;21.17;;;13.00;;
5965;SDS011;3009;43.224;27.976;2022-12-18T10:15:39;31.03;;;15.70;;
5965;SDS011;3009;43.224;27.976;2022-12-18T10:18:18;32.20;;;17.13;;
5965;SDS011;3009;43.224;27.976;2022-12-18T10:20:54;29.20;;;15.57;;
5965;SDS011;3009;43.224;27.976;2022-12-18T10:23:28;27.80;;;16.07;;
5965;SDS011;3009;43.224;27.976;2022-12-18T10:26:13;27.30;;;15.17;;
5965;SDS011;3009;43.224;27.976;2022-12-18T10:28:42;24.87;;;14.63;;
5965;SDS011;3009;43.224;27.976;2022-12-18T10:31:12;31.20;;;15.17;;
5965;SDS011;3009;43.224;27.976;2022-12-18T10:33:45;27.90;;;15.50;;
5965;SDS011;3009;43.224;27.976;2022-12-18T10:36:14;35.90;;;19.93;;
5965;SDS011;3009;43.224;27.976;2022-12-18T10:38:42;31.23;;;16.77;;
5965;SDS011;3009;43.224;27.976;2022-12-18T10:41:22;28.83;;;17.30;;
5965;SDS011;3009;43.224;27.976;2022-12-18T10:44:11;30.47;;;17.20;;
5965;SDS011;3009;43.224;27.976;2022-12-18T10:46:44;31.17;;;14.97;;
5965;SDS011;3009;43.224;27.976;2022-12-18T10:49:23;31.03;;;16.90;;
5965;SDS011;3009;43.224;27.976;2022-12-18T10:52:03;37.30;;;16.63;;
5965;SDS011;3009;43.224;27.976;2022-12-18T10:54:35;27.10;;;14.97;;
5965;SDS011;3009;43.224;27.976;2022-12-18T10:57:17;29.57;;;16.57;;
5965;SDS011;3009;43.224;27.976;2022-12-18T10:59:57;32.13;;;14.90;;
5965;SDS011;3009;43.224;27.976;2022-12-18T11:02:28;33.93;;;18.13;;
5965;SDS011;3009;43.224;27.976;2022-12-18T11:05:03;34.43;;;17.00;;
5965;SDS011;3009;43.224;27.976;2022-12-18T11:07:51;30.97;;;17.53;;
5965;SDS011;3009;43.224;27.976;2022-12-18T11:10:21;34.63;;;17.93;;
5965;SDS011;3009;43.224;27.976;2022-12-18T11:12:51;33.23;;;18.73;;
5965;SDS011;3009;43.224;27.976;2022-12-18T11:15:21;32.33;;;16.87;;
5965;SDS011;3009;43.224;27.976;2022-12-18T11:17:54;43.33;;;19.13;;
5965;SDS011;3009;43.224;27.976;2022-12-18T11:20:30;29.37;;;16.57;;
5965;SDS011;3009;43.224;27.976;2022-12-18T11:23:02;35.53;;;16.97;;
5965;SDS011;3009;43.224;27.976;2022-12-18T11:25:32;32.60;;;18.00;;
5965;SDS011;3009;43.224;27.976;2022-12-18T11:28:02;34.50;;;18.87;;
5965;SDS011;3009;43.224;27.976;2022-12-18T11:30:33;37.87;;;19.60;;
5965;SDS011;3009;43.224;27.976;2022-12-18T11:33:03;34.07;;;19.60;;
5965;SDS011;3009;43.224;27.976;2022-12-18T11:35:39;36.57;;;18.77;;
5965;SDS011;3009;43.224;27.976;2022-12-18T11:38:17;39.53;;;19.30;;
5965;SDS011;3009;43.224;27.976;2022-12-18T11:40:50;38.60;;;18.67;;
5965;SDS011;3009;43.224;27.976;2022-12-18T11:43:25;37.77;;;18.93;;
5965;SDS011;3009;43.224;27.976;2022-12-18T11:45:59;34.20;;;18.10;;
5965;SDS011;3009;43.224;27.976;2022-12-18T11:48:32;38.73;;;18.00;;
5965;SDS011;3009;43.224;27.976;2022-12-18T11:51:09;29.83;;;17.47;;
5965;SDS011;3009;43.224;27.976;2022-12-18T11:53:42;34.10;;;18.57;;
5965;SDS011;3009;43.224;27.976;2022-12-18T11:56:16;32.63;;;17.90;;
5965;SDS011;3009;43.224;27.976;2022-12-18T11:58:57;34.83;;;16.60;;
5965;SDS011;3009;43.224;27.976;2022-12-18T12:01:37;30.10;;;16.60;;
5965;SDS011;3009;43.224;27.976;2022-12-18T12:07:10;18.80;;;12.80;;
5965;SDS011;3009;43.224;27.976;2022-12-18T12:09:48;23.23;;;14.50;;
5965;SDS011;3009;43.224;27.976;2022-12-18T12:12:28;25.30;;;12.93;;
5965;SDS011;3009;43.224;27.976;2022-12-18T12:15:17;24.57;;;14.03;;
5965;SDS011;3009;43.224;27.976;2022-12-18T12:17:54;23.87;;;14.40;;
5965;SDS011;3009;43.224;27.976;2022-12-18T12:20:42;19.43;;;12.77;;
5965;SDS011;3009;43.224;27.976;2022-12-18T12:23:22;27.83;;;14.93;;
5965;SDS011;3009;43.224;27.976;2022-12-18T12:26:03;45.33;;;26.87;;
5965;SDS011;3009;43.224;27.976;2022-12-18T12:31:28;556.67;;;196.53;;
5965;SDS011;3009;43.224;27.976;2022-12-18T12:34:12;498.20;;;190.27;;
5965;SDS011;3009;43.224;27.976;2022-12-18T12:36:50;72.13;;;30.63;;
5965;SDS011;3009;43.224;27.976;2022-12-18T12:39:33;15.60;;;9.97;;
5965;SDS011;3009;43.224;27.976;2022-12-18T12:42:05;11.23;;;8.67;;
5965;SDS011;3009;43.224;27.976;2022-12-18T12:44:58;8.57;;;7.60;;
5965;SDS011;3009;43.224;27.976;2022-12-18T12:47:33;12.73;;;8.87;;
5965;SDS011;3009;43.224;27.976;2022-12-18T12:50:11;8.27;;;6.30;;
5965;SDS011;3009;43.224;27.976;2022-12-18T12:52:43;7.53;;;6.47;;
5965;SDS011;3009;43.224;27.976;2022-12-18T12:55:17;11.03;;;7.40;;
5965;SDS011;3009;43.224;27.976;2022-12-18T12:57:52;7.70;;;6.10;;
5965;SDS011;3009;43.224;27.976;2022-12-18T13:00:27;13.40;;;6.93;;
5965;SDS011;3009;43.224;27.976;2022-12-18T13:03:07;10.93;;;6.10;;
5965;SDS011;3009;43.224;27.976;2022-12-18T13:05:43;9.40;;;7.10;;
5965;SDS011;3009;43.224;27.976;2022-12-18T13:08:23;11.13;;;6.87;;
5965;SDS011;3009;43.224;27.976;2022-12-18T13:10:58;10.43;;;6.90;;
5965;SDS011;3009;43.224;27.976;2022-12-18T13:13:48;13.43;;;7.80;;
5965;SDS011;3009;43.224;27.976;2022-12-18T13:16:18;14.17;;;8.70;;
5965;SDS011;3009;43.224;27.976;2022-12-18T13:18:48;12.50;;;8.83;;
5965;SDS011;3009;43.224;27.976;2022-12-18T13:21:20;13.40;;;8.77;;
5965;SDS011;3009;43.224;27.976;2022-12-18T13:23:51;10.50;;;7.47;;
5965;SDS011;3009;43.224;27.976;2022-12-18T13:26:30;38.53;;;15.50;;
5965;SDS011;3009;43.224;27.976;2022-12-18T13:29:00;41.07;;;19.63;;
5965;SDS011;3009;43.224;27.976;2022-12-18T13:34:35;18.27;;;10.70;;
5965;SDS011;3009;43.224;27.976;2022-12-18T13:43:34;10.30;;;7.30;;
5965;SDS011;3009;43.224;27.976;2022-12-18T13:46:17;11.97;;;7.77;;
5965;SDS011;3009;43.224;27.976;2022-12-18T13:48:49;9.63;;;7.60;;
5965;SDS011;3009;43.224;27.976;2022-12-18T13:51:20;16.87;;;10.90;;
5965;SDS011;3009;43.224;27.976;2022-12-18T13:53:49;22.13;;;13.40;;
5965;SDS011;3009;43.224;27.976;2022-12-18T13:56:21;18.50;;;10.73;;
5965;SDS011;3009;43.224;27.976;2022-12-18T13:59:11;21.00;;;11.03;;
5965;SDS011;3009;43.224;27.976;2022-12-18T14:01:51;23.00;;;12.70;;
5965;SDS011;3009;43.224;27.976;2022-12-18T14:04:23;23.73;;;10.83;;
5965;SDS011;3009;43.224;27.976;2022-12-18T14:06:58;17.10;;;8.67;;
5965;SDS011;3009;43.224;27.976;2022-12-18T14:09:31;13.00;;;8.50;;
5965;SDS011;3009;43.224;27.976;2022-12-18T14:12:04;19.60;;;11.30;;
5965;SDS011;3009;43.224;27.976;2022-12-18T14:14:52;21.53;;;11.43;;
5965;SDS011;3009;43.224;27.976;2022-12-18T14:17:21;59.27;;;23.40;;
5965;SDS011;3009;43.224;27.976;2022-12-18T14:19:51;20.20;;;12.70;;
5965;SDS011;3009;43.224;27.976;2022-12-18T14:22:20;14.53;;;9.60;;
5965;SDS011;3009;43.224;27.976;2022-12-18T14:25:08;17.00;;;10.80;;
5965;SDS011;3009;43.224;27.976;2022-12-18T14:27:43;22.87;;;11.90;;
5965;SDS011;3009;43.224;27.976;2022-12-18T14:33:03;20.20;;;13.17;;
5965;SDS011;3009;43.224;27.976;2022-12-18T14:35:32;24.03;;;13.50;;
5965;SDS011;3009;43.224;27.976;2022-12-18T14:38:11;14.40;;;10.17;;
5965;SDS011;3009;43.224;27.976;2022-12-18T14:40:47;17.50;;;11.93;;
5965;SDS011;3009;43.224;27.976;2022-12-18T14:43:21;20.70;;;13.37;;
5965;SDS011;3009;43.224;27.976;2022-12-18T14:45:51;29.20;;;14.00;;
5965;SDS011;3009;43.224;27.976;2022-12-18T14:48:20;19.23;;;12.20;;
5965;SDS011;3009;43.224;27.976;2022-12-18T14:50:56;12.87;;;9.27;;
5965;SDS011;3009;43.224;27.976;2022-12-18T14:53:30;23.50;;;12.27;;
5965;SDS011;3009;43.224;27.976;2022-12-18T14:56:02;17.50;;;11.93;;
5965;SDS011;3009;43.224;27.976;2022-12-18T14:58:32;22.13;;;12.37;;
5965;SDS011;3009;43.224;27.976;2022-12-18T15:01:02;18.30;;;11.83;;
5965;SDS011;3009;43.224;27.976;2022-12-18T15:03:30;18.67;;;11.53;;
5965;SDS011;3009;43.224;27.976;2022-12-18T15:08:45;15.93;;;9.57;;
5965;SDS011;3009;43.224;27.976;2022-12-18T15:11:26;14.00;;;8.03;;
5965;SDS011;3009;43.224;27.976;2022-12-18T15:13:57;15.20;;;9.20;;
5965;SDS011;3009;43.224;27.976;2022-12-18T15:16:27;16.87;;;10.17;;
5965;SDS011;3009;43.224;27.976;2022-12-18T15:18:55;18.57;;;10.60;;
5965;SDS011;3009;43.224;27.976;2022-12-18T15:21:23;20.13;;;11.60;;
5965;SDS011;3009;43.224;27.976;2022-12-18T15:23:52;30.77;;;14.73;;
5965;SDS011;3009;43.224;27.976;2022-12-18T15:26:21;30.67;;;14.30;;
5965;SDS011;3009;43.224;27.976;2022-12-18T15:28:50;36.70;;;19.50;;
5965;SDS011;3009;43.224;27.976;2022-12-18T15:31:22;37.53;;;19.10;;
5965;SDS011;3009;43.224;27.976;2022-12-18T15:34:09;21.30;;;13.17;;